Time;durP1;ratioP1;P1;durP2;ratioP2;P2;SDS_P1;SDS_P2;PMS_P1;PMS_P2;Temp;Humidity;BMP_temperature;BMP_pressure;BME280_temperature;BME280_humidity;BME280_pressure;Samples;Min_cycle;Max_cycle;Signal;HPM_P1;HPM_P2
2021/06/16 00:00:33;;;;;;;7.93;2.65;;;;;;;20.03;58.68;100059.34;4998721;28;20029;-62
2021/06/16 00:03:04;;;;;;;5.18;2.10;;;;;;;20.02;58.78;100055.84;4998374;28;20104;-64
2021/06/16 00:05:35;;;;;;;4.85;1.95;;;;;;;20.01;58.58;100053.25;4998916;28;20575;-64
2021/06/16 00:08:01;;;;;;;8.60;3.42;;;;;;;19.98;58.64;100051.56;4998653;28;20080;-64
2021/06/16 00:10:34;;;;;;;5.38;2.42;;;;;;;19.96;58.83;100042.84;5016171;28;20128;-63
2021/06/16 00:13:03;;;;;;;8.85;2.45;;;;;;;19.96;58.78;100032.31;5015120;28;20041;-63
2021/06/16 00:15:35;;;;;;;7.82;2.40;;;;;;;19.95;58.76;100045.50;4998472;28;20045;-62
2021/06/16 00:18:07;;;;;;;9.05;2.25;;;;;;;19.95;58.63;100040.22;5014753;28;20038;-61
2021/06/16 00:20:37;;;;;;;9.07;2.58;;;;;;;19.94;58.56;100039.38;5014913;28;20464;-64
2021/06/16 00:23:04;;;;;;;8.55;2.80;;;;;;;19.93;58.60;100032.38;5014553;28;20037;-62
2021/06/16 00:25:36;;;;;;;5.40;2.72;;;;;;;19.92;58.82;100026.28;5016040;28;20042;-62
2021/06/16 00:28:04;;;;;;;5.03;2.45;;;;;;;19.94;58.66;100031.47;4998409;28;20152;-61
2021/06/16 00:30:33;;;;;;;6.80;2.38;;;;;;;19.92;58.53;100031.53;4998235;28;20042;-63
2021/06/16 00:33:05;;;;;;;4.95;2.00;;;;;;;19.91;58.55;100026.28;4998234;28;20042;-62
2021/06/16 00:35:33;;;;;;;5.70;2.15;;;;;;;19.91;58.57;100021.03;4998097;28;20476;-63
2021/06/16 00:37:59;;;;;;;8.55;3.05;;;;;;;19.91;58.70;100024.53;5015325;28;20035;-62
2021/06/16 00:40:29;;;;;;;7.28;1.90;;;;;;;19.90;58.77;100017.56;5015574;28;20038;-63
2021/06/16 00:43:03;;;;;;;5.60;2.67;;;;;;;19.89;58.64;100021.09;4998658;28;20065;-62
2021/06/16 00:45:35;;;;;;;5.50;2.42;;;;;;;19.89;58.77;100025.47;5015674;28;20046;-62
2021/06/16 00:48:01;;;;;;;4.75;2.47;;;;;;;19.89;58.46;100018.44;5015608;28;20030;-63
2021/06/16 00:50:34;;;;;;;5.57;2.55;;;;;;;19.89;58.56;100018.44;5015682;28;20065;-62
2021/06/16 00:53:09;;;;;;;7.32;3.17;;;;;;;19.89;58.65;100014.94;4997622;28;20088;-62
2021/06/16 00:55:40;;;;;;;10.45;2.53;;;;;;;19.88;58.52;100008.81;5015533;28;20048;-63
2021/06/16 00:58:11;;;;;;;9.45;2.72;;;;;;;19.89;58.59;100012.31;4997964;28;20129;-63
2021/06/16 01:00:51;;;;;;;7.13;2.20;;;;;;;19.89;58.46;100014.94;5014068;28;20080;-63
2021/06/16 01:03:25;;;;;;;10.55;3.15;;;;;;;19.87;58.68;100011.47;4997503;28;20061;-63
2021/06/16 01:06:17;;;;;;;5.85;2.25;;;;;;;19.86;58.58;100000.06;5014236;28;20034;-63
2021/06/16 01:08:56;;;;;;;4.80;2.50;;;;;;;19.85;58.56;100000.97;4997445;28;20125;-64
2021/06/16 01:11:24;;;;;;;7.38;2.70;;;;;;;19.85;58.47;100000.13;4997945;28;20041;-62
2021/06/16 01:13:55;;;;;;;5.07;2.33;;;;;;;19.85;58.80;99992.22;4997336;28;20441;-62
2021/06/16 01:16:36;;;;;;;9.15;2.70;;;;;;;19.82;58.64;99993.16;4997645;28;20136;-63
2021/06/16 01:19:17;;;;;;;7.78;2.88;;;;;;;19.83;58.55;99988.78;4997514;28;20444;-63
2021/06/16 01:21:52;;;;;;;7.47;2.83;;;;;;;19.82;58.56;99992.31;4997238;28;20049;-63
2021/06/16 01:24:20;;;;;;;6.63;2.67;;;;;;;19.81;58.53;99994.03;4997210;28;20092;-63
2021/06/16 01:26:54;;;;;;;6.95;2.65;;;;;;;19.80;58.48;99991.47;5014961;28;20057;-64
2021/06/16 01:29:19;;;;;;;7.50;2.40;;;;;;;19.80;58.71;99996.72;4997477;28;20401;-62
2021/06/16 01:31:53;;;;;;;6.70;2.42;;;;;;;19.78;58.55;99994.09;5013337;28;20041;-63
2021/06/16 01:34:27;;;;;;;4.53;2.58;;;;;;;19.76;58.61;99991.53;5013210;28;20044;-61
2021/06/16 01:36:58;;;;;;;6.03;2.50;;;;;;;19.75;58.49;99984.53;4996984;28;20125;-63
2021/06/16 01:39:29;;;;;;;8.48;2.20;;;;;;;19.76;58.74;99990.69;5013623;28;20045;-63
2021/06/16 01:41:58;;;;;;;5.38;2.65;;;;;;;19.74;58.57;99987.22;4997173;28;20108;-62
2021/06/16 01:44:27;;;;;;;6.90;2.58;;;;;;;19.73;58.57;99988.97;5014575;28;20088;-63
2021/06/16 01:46:56;;;;;;;4.40;2.55;;;;;;;19.73;58.76;99986.34;4996847;28;20048;-62
2021/06/16 01:49:26;;;;;;;9.55;2.47;;;;;;;19.72;58.64;99984.59;4996031;28;20030;-62
2021/06/16 01:51:56;;;;;;;5.68;2.42;;;;;;;19.72;58.88;99983.75;4997222;28;20029;-64
2021/06/16 01:54:26;;;;;;;4.63;2.38;;;;;;;19.72;58.71;99973.22;4996887;28;20401;-62
2021/06/16 01:56:56;;;;;;;5.25;2.42;;;;;;;19.71;58.74;99972.34;5014243;28;20037;-62
2021/06/16 01:59:26;;;;;;;7.88;2.40;;;;;;;19.69;58.54;99960.16;5013075;28;20049;-63
2021/06/16 02:01:54;;;;;;;9.73;2.60;;;;;;;19.69;58.65;99965.41;5014693;28;20613;-64
2021/06/16 02:04:23;;;;;;;5.53;2.30;;;;;;;19.67;58.51;99965.47;4996345;28;20478;-63
2021/06/16 02:07:02;;;;;;;5.03;2.58;;;;;;;19.65;58.58;99959.38;4997026;28;20471;-62
2021/06/16 02:09:33;;;;;;;5.15;2.40;;;;;;;19.63;58.55;99956.75;5014141;28;20034;-63
2021/06/16 02:11:59;;;;;;;5.47;2.70;;;;;;;19.65;58.70;99962.00;5013168;28;20034;-64
2021/06/16 02:14:30;;;;;;;6.75;2.50;;;;;;;19.65;58.46;99961.13;5012626;28;20396;-62
2021/06/16 02:17:08;;;;;;;6.63;2.78;;;;;;;19.64;58.64;99957.63;5012933;28;20050;-62
2021/06/16 02:19:37;;;;;;;7.10;3.00;;;;;;;19.63;58.77;99956.75;5013096;28;20092;-63
2021/06/16 02:22:09;;;;;;;7.13;2.72;;;;;;;19.61;58.44;99965.59;5012736;28;20104;-63
2021/06/16 02:24:41;;;;;;;5.95;2.95;;;;;;;19.61;58.72;99955.94;4996033;28;20544;-62
2021/06/16 02:27:13;;;;;;;6.07;2.72;;;;;;;19.60;58.71;99951.59;4995976;28;20041;-63
2021/06/16 02:29:41;;;;;;;10.23;3.22;;;;;;;19.59;58.70;99948.97;5014046;28;20045;-63
2021/06/16 02:32:12;;;;;;;7.25;2.90;;;;;;;19.56;58.63;99941.16;5014082;28;20036;-63
2021/06/16 02:34:42;;;;;;;6.13;3.38;;;;;;;19.56;58.77;99941.16;5012839;28;20064;-63
2021/06/16 02:37:18;;;;;;;7.18;3.33;;;;;;;19.54;58.69;99935.94;4996106;28;20040;-61
2021/06/16 02:39:57;;;;;;;8.32;2.78;;;;;;;19.52;58.50;99931.63;5013806;28;20610;-62
2021/06/16 02:42:23;;;;;;;7.50;2.67;;;;;;;19.52;58.64;99929.00;4996322;28;20034;-63
2021/06/16 02:44:50;;;;;;;7.20;3.28;;;;;;;19.48;58.58;99929.06;5012410;28;20049;-61
2021/06/16 02:47:19;;;;;;;13.13;3.28;;;;;;;19.48;58.87;99925.56;4995778;28;20145;-62
2021/06/16 02:49:58;;;;;;;6.78;3.90;;;;;;;19.46;58.63;99922.13;5013715;28;20045;-62
2021/06/16 02:52:35;;;;;;;9.52;2.97;;;;;;;19.45;58.77;99918.63;4996719;28;20033;-63
2021/06/16 02:55:06;;;;;;;7.65;3.33;;;;;;;19.43;58.70;99920.41;5013104;28;20080;-64
2021/06/16 02:57:37;;;;;;;11.70;3.38;;;;;;;19.42;58.76;99913.44;5012084;28;20041;-62
2021/06/16 03:00:08;;;;;;;8.05;3.65;;;;;;;19.40;58.68;99912.59;4996113;28;20049;-62
2021/06/16 03:02:44;;;;;;;5.90;3.08;;;;;;;19.40;58.82;99911.75;5015626;28;20100;-63
2021/06/16 03:05:17;;;;;;;10.48;3.70;;;;;;;19.39;58.83;99907.41;5016795;28;20060;-62
2021/06/16 03:07:46;;;;;;;9.68;3.30;;;;;;;19.38;58.92;99908.28;5017477;28;20516;-62
2021/06/16 03:10:22;;;;;;;9.68;3.72;;;;;;;19.37;58.93;99904.81;4999943;28;20034;-62
2021/06/16 03:12:53;;;;;;;9.88;4.25;;;;;;;19.36;59.00;99903.09;5016862;28;20489;-62
2021/06/16 03:15:25;;;;;;;6.90;3.28;;;;;;;19.33;58.80;99900.50;5017009;28;20512;-62
2021/06/16 03:17:57;;;;;;;6.15;3.30;;;;;;;19.31;58.74;99903.16;5016010;28;20033;-64
2021/06/16 03:20:30;;;;;;;6.88;3.60;;;;;;;19.30;58.88;99905.84;4999772;28;20034;-64
2021/06/16 03:22:57;;;;;;;12.53;4.23;;;;;;;19.29;58.56;99912.88;5015911;28;20045;-63
2021/06/16 03:25:28;;;;;;;11.68;4.35;;;;;;;19.28;59.07;99907.63;4999275;28;20069;-63
2021/06/16 03:28:03;;;;;;;9.13;3.63;;;;;;;19.25;58.82;99900.69;5017085;28;20030;-63
2021/06/16 03:30:32;;;;;;;7.63;3.45;;;;;;;19.25;58.79;99891.94;5015506;28;20034;-62
2021/06/16 03:33:04;;;;;;;7.30;3.63;;;;;;;19.24;58.88;99898.06;5015531;28;20038;-64
2021/06/16 03:35:32;;;;;;;8.38;4.10;;;;;;;19.24;58.66;99900.69;5015645;28;20047;-63
2021/06/16 03:38:04;;;;;;;10.00;3.85;;;;;;;19.21;58.76;99899.03;5016901;28;20515;-63
2021/06/16 03:40:31;;;;;;;8.85;3.85;;;;;;;19.21;58.92;99892.91;5015645;28;20037;-62
2021/06/16 03:43:01;;;;;;;7.97;3.53;;;;;;;19.20;58.85;99892.03;4999144;28;20129;-62
2021/06/16 03:45:33;;;;;;;11.32;3.95;;;;;;;19.19;58.98;99899.97;5017223;28;20034;-63
2021/06/16 03:48:04;;;;;;;8.70;3.30;;;;;;;19.17;58.94;99892.09;5015794;28;20108;-63
2021/06/16 03:50:36;;;;;;;7.07;3.53;;;;;;;19.15;58.71;99886.88;4999276;28;20046;-62
2021/06/16 03:53:07;;;;;;;9.13;4.28;;;;;;;19.14;58.97;99890.41;5015131;28;20033;-62
2021/06/16 03:55:33;;;;;;;8.55;4.03;;;;;;;19.14;58.90;99886.94;5016770;28;20065;-63
2021/06/16 03:58:02;;;;;;;8.00;3.55;;;;;;;19.14;59.09;99887.78;4999133;28;20524;-62
2021/06/16 04:00:33;;;;;;;10.98;3.88;;;;;;;19.12;58.92;99888.72;4999391;28;20477;-63
2021/06/16 04:03:08;;;;;;;9.02;3.80;;;;;;;19.11;59.16;99889.63;4998418;28;20045;-62
2021/06/16 04:05:39;;;;;;;6.97;3.90;;;;;;;19.10;58.99;99890.53;5016396;28;20065;-63
2021/06/16 04:08:13;;;;;;;18.00;3.97;;;;;;;19.08;59.04;99885.28;5016514;28;20520;-63
2021/06/16 04:10:43;;;;;;;;;;;;;;;19.05;58.89;99881.88;5016971;28;20038;-63
2021/06/16 04:13:11;;;;;;;11.02;3.60;;;;;;;19.07;59.23;99883.59;4997870;28;19921;-62
2021/06/16 04:15:42;;;;;;;12.85;4.05;;;;;;;19.06;59.31;99873.97;5014849;28;20045;-62
2021/06/16 04:18:16;;;;;;;11.93;4.28;;;;;;;19.05;59.11;99873.97;4999108;28;20405;-63
2021/06/16 04:20:44;;;;;;;12.27;3.90;;;;;;;19.04;59.15;99875.75;4999057;28;20033;-63
2021/06/16 04:23:15;;;;;;;12.95;4.40;;;;;;;19.04;59.08;99874.88;5015954;28;20034;-62
2021/06/16 04:25:42;;;;;;;10.57;4.00;;;;;;;19.02;58.82;99872.31;4998132;28;20037;-62
2021/06/16 04:28:14;;;;;;;13.32;3.53;;;;;;;19.01;59.25;99865.31;4997999;28;20042;-63
2021/06/16 04:30:44;;;;;;;10.35;4.25;;;;;;;19.01;59.00;99868.78;5015690;28;20167;-63
2021/06/16 04:33:12;;;;;;;12.48;4.38;;;;;;;19.00;59.08;99864.44;4998090;28;20045;-63
2021/06/16 04:35:44;;;;;;;11.32;4.47;;;;;;;19.01;59.18;99870.56;5015611;28;20034;-62
2021/06/16 04:38:12;;;;;;;13.90;3.53;;;;;;;18.99;59.13;99868.00;4998403;28;20041;-62
2021/06/16 04:40:43;;;;;;;10.80;4.10;;;;;;;18.96;59.05;99862.78;4997852;28;20042;-62
2021/06/16 04:43:14;;;;;;;15.02;4.85;;;;;;;18.96;59.07;99867.16;4997787;28;20382;-63
2021/06/16 04:45:48;;;;;;;13.43;4.60;;;;;;;18.95;59.11;99866.31;4998237;28;20393;-63
2021/06/16 04:48:18;;;;;;;9.70;4.05;;;;;;;18.95;59.22;99855.81;5015836;28;20037;-61
2021/06/16 04:50:45;;;;;;;13.93;3.78;;;;;;;18.96;59.17;99852.28;5014303;28;20034;-62
2021/06/16 04:53:16;;;;;;;8.38;3.80;;;;;;;18.97;59.20;99850.50;5015250;28;20064;-63
2021/06/16 04:55:44;;;;;;;14.70;4.88;;;;;;;18.98;59.35;99855.75;5015446;28;20030;-63
2021/06/16 04:58:15;;;;;;;10.60;4.75;;;;;;;18.99;59.41;99851.34;5015345;28;20037;-63
2021/06/16 05:00:43;;;;;;;13.43;4.20;;;;;;;18.98;59.41;99849.63;5014930;28;20553;-62
2021/06/16 05:03:11;;;;;;;14.02;5.53;;;;;;;18.99;59.20;99846.09;5015295;28;20073;-62
2021/06/16 05:05:45;;;;;;;19.10;5.32;;;;;;;19.00;59.12;99832.91;5014718;28;20034;-62
2021/06/16 05:08:10;;;;;;;14.82;4.80;;;;;;;19.01;59.35;99833.81;4997325;28;20046;-63
2021/06/16 05:10:44;;;;;;;14.23;4.68;;;;;;;19.02;59.30;99843.41;5014750;28;20512;-63
2021/06/16 05:13:12;;;;;;;11.18;3.95;;;;;;;19.04;59.22;99838.13;5013930;28;20037;-63
2021/06/16 05:15:41;;;;;;;13.43;5.65;;;;;;;19.04;59.39;99846.00;5014959;28;20041;-62
2021/06/16 05:18:09;;;;;;;17.00;5.15;;;;;;;19.04;59.31;99844.25;5014909;28;20034;-63
2021/06/16 05:20:39;;;;;;;11.82;5.22;;;;;;;19.06;59.68;99847.72;4997734;28;20037;-62
2021/06/16 05:23:08;;;;;;;16.50;5.53;;;;;;;19.07;59.62;99840.69;5014571;28;20038;-62
2021/06/16 05:25:33;;;;;;;12.43;4.28;;;;;;;19.07;59.25;99838.94;5013839;28;20037;-63
2021/06/16 05:28:01;;;;;;;13.38;5.03;;;;;;;19.08;59.50;99837.16;5013436;28;20033;-62
2021/06/16 05:30:29;;;;;;;15.40;5.13;;;;;;;19.09;59.61;99841.50;5014790;28;20107;-62
2021/06/16 05:32:58;;;;;;;11.27;4.93;;;;;;;19.09;59.43;99836.25;5014194;28;20064;-64
2021/06/16 05:35:23;;;;;;;12.55;4.95;;;;;;;19.10;59.29;99840.63;4997019;28;20073;-62
2021/06/16 05:37:59;;;;;;;15.85;5.32;;;;;;;19.09;59.86;99833.63;5013449;28;20405;-62
2021/06/16 05:40:24;;;;;;;15.00;5.22;;;;;;;19.09;59.63;99836.25;4996952;28;20034;-62
2021/06/16 05:42:53;;;;;;;15.73;5.32;;;;;;;19.09;59.28;99831.84;5014711;28;20033;-63
2021/06/16 05:45:21;;;;;;;13.00;5.13;;;;;;;19.10;59.45;99832.75;5013627;28;20065;-64
2021/06/16 05:47:49;;;;;;;10.98;4.38;;;;;;;19.10;59.45;99833.59;5014052;28;20042;-62
2021/06/16 05:50:15;;;;;;;13.57;5.63;;;;;;;19.11;59.59;99829.22;5013226;28;20036;-62
2021/06/16 05:52:44;;;;;;;11.82;5.70;;;;;;;19.11;59.57;99827.44;5013012;28;20136;-62
2021/06/16 05:55:10;;;;;;;9.68;4.85;;;;;;;19.11;59.44;99829.22;4997007;28;20030;-62
2021/06/16 05:57:38;;;;;;;11.23;4.90;;;;;;;19.12;59.42;99826.53;4996667;28;20409;-63
2021/06/16 06:00:08;;;;;;;11.82;5.45;;;;;;;19.13;59.63;99819.53;5013802;28;20045;-63
2021/06/16 06:02:35;;;;;;;13.80;5.25;;;;;;;19.14;59.62;99824.75;5013749;28;20054;-62
2021/06/16 06:05:03;;;;;;;17.70;5.43;;;;;;;19.15;59.68;99820.38;5014048;28;20034;-62
2021/06/16 06:07:31;;;;;;;9.98;5.03;;;;;;;19.15;59.42;99823.84;5014073;28;20040;-62
2021/06/16 06:10:02;;;;;;;11.57;6.05;;;;;;;19.17;59.50;99818.56;5012502;28;20096;-62
2021/06/16 06:12:30;;;;;;;10.32;4.75;;;;;;;19.20;59.57;99822.88;5013935;28;20033;-64
2021/06/16 06:14:59;;;;;;;10.68;5.20;;;;;;;19.20;59.66;99822.88;4996169;28;20069;-62
2021/06/16 06:17:27;;;;;;;8.82;5.45;;;;;;;19.21;59.51;99820.22;5014330;28;20580;-63
2021/06/16 06:19:57;;;;;;;12.93;5.63;;;;;;;19.22;59.49;99819.31;5013045;28;20076;-64
2021/06/16 06:22:26;;;;;;;18.52;5.07;;;;;;;19.24;59.51;99820.16;5013822;28;20083;-62
2021/06/16 06:24:54;;;;;;;12.98;5.22;;;;;;;19.25;59.49;99813.13;5013947;28;20033;-63
2021/06/16 06:27:22;;;;;;;12.82;5.30;;;;;;;19.27;59.51;99816.56;5013560;28;20037;-64
2021/06/16 06:29:48;;;;;;;13.90;5.60;;;;;;;19.28;59.71;99816.56;4996250;28;20512;-62
2021/06/16 06:32:15;;;;;;;9.57;5.00;;;;;;;19.29;59.16;99812.16;5013487;28;20034;-63
2021/06/16 06:34:41;;;;;;;8.93;4.22;;;;;;;19.32;59.49;99809.47;5013774;28;20034;-62
2021/06/16 06:37:12;;;;;;;13.55;5.15;;;;;;;19.33;59.53;99803.31;5013429;28;20034;-62
2021/06/16 06:39:41;;;;;;;11.98;4.75;;;;;;;19.35;59.59;99800.63;4996118;28;20466;-63
2021/06/16 06:42:08;;;;;;;12.18;4.60;;;;;;;19.35;59.53;99801.50;5013172;28;20404;-62
2021/06/16 06:44:36;;;;;;;14.70;5.18;;;;;;;19.37;59.59;99797.09;4996061;28;20413;-63
2021/06/16 06:47:04;;;;;;;9.10;4.03;;;;;;;19.39;59.51;99794.41;4995950;28;20501;-63
2021/06/16 06:49:35;;;;;;;11.68;5.13;;;;;;;19.41;59.48;99787.34;5013598;28;20038;-63
2021/06/16 06:52:04;;;;;;;10.57;4.90;;;;;;;19.44;59.75;99789.91;5012564;28;20104;-62
2021/06/16 06:54:35;;;;;;;13.13;5.20;;;;;;;19.46;59.94;99782.84;4996296;28;20038;-62
2021/06/16 06:57:09;;;;;;;13.00;5.55;;;;;;;19.47;59.58;99782.81;5012464;28;20034;-62
2021/06/16 06:59:39;;;;;;;13.13;5.50;;;;;;;19.50;59.58;99778.38;4996490;28;20038;-62
2021/06/16 07:02:07;;;;;;;11.57;5.13;;;;;;;19.53;59.67;99779.16;5013427;28;20487;-63
2021/06/16 07:04:38;;;;;;;13.73;5.80;;;;;;;19.55;59.68;99777.34;5012335;28;20041;-64
2021/06/16 07:07:06;;;;;;;14.70;6.55;;;;;;;19.57;59.66;99778.19;4996004;28;20088;-63
2021/06/16 07:09:36;;;;;;;13.80;5.38;;;;;;;19.60;59.98;99769.34;5012628;28;20041;-63
2021/06/16 07:12:05;;;;;;;12.23;5.90;;;;;;;19.62;59.63;99767.56;5012157;28;20080;-62
2021/06/16 07:14:37;;;;;;;13.35;5.90;;;;;;;19.64;59.58;99765.75;5013509;28;20077;-63
2021/06/16 07:17:03;;;;;;;11.18;6.68;;;;;;;19.66;59.77;99763.06;5013307;28;20081;-63
2021/06/16 07:19:34;;;;;;;10.77;6.00;;;;;;;19.67;60.04;99756.91;5013246;28;20080;-64
2021/06/16 07:22:02;;;;;;;16.48;6.13;;;;;;;19.68;59.77;99758.63;5012526;28;20045;-63
2021/06/16 07:24:30;;;;;;;11.38;6.05;;;;;;;19.68;59.74;99754.25;5012125;28;20034;-63
2021/06/16 07:26:58;;;;;;;9.13;5.75;;;;;;;19.70;59.94;99760.31;4995741;28;20034;-63
2021/06/16 07:29:29;;;;;;;11.40;6.28;;;;;;;19.72;59.70;99755.88;5012960;28;20453;-63
2021/06/16 07:31:57;;;;;;;10.25;5.95;;;;;;;19.74;59.75;99755.84;5013096;28;20034;-62
2021/06/16 07:34:26;;;;;;;12.98;7.07;;;;;;;19.75;59.76;99753.19;5012977;28;20038;-62
2021/06/16 07:36:58;;;;;;;11.70;6.78;;;;;;;19.77;59.84;99750.53;4995853;28;20084;-64
2021/06/16 07:39:26;;;;;;;8.95;6.22;;;;;;;19.80;59.78;99754.84;4996187;28;20042;-63
2021/06/16 07:41:57;;;;;;;12.55;6.15;;;;;;;19.81;59.94;99749.53;5013029;28;20026;-64
2021/06/16 07:44:27;;;;;;;11.23;6.45;;;;;;;19.82;59.90;99753.03;5012180;28;20527;-61
2021/06/16 07:46:55;;;;;;;15.52;7.65;;;;;;;19.85;59.96;99753.81;5011728;28;20033;-64
2021/06/16 07:49:22;;;;;;;9.48;6.20;;;;;;;19.86;59.87;99750.28;4998449;28;20034;-62
2021/06/16 07:51:55;;;;;;;13.57;7.20;;;;;;;19.88;60.32;99753.75;5015471;28;20084;-62
2021/06/16 07:54:23;;;;;;;12.55;7.50;;;;;;;19.90;59.81;99751.06;5015964;28;20034;-63
2021/06/16 07:56:49;;;;;;;13.60;7.18;;;;;;;19.91;60.08;99752.78;5015418;28;20105;-62
2021/06/16 07:59:19;;;;;;;14.85;6.72;;;;;;;19.93;60.21;99754.47;5016251;28;20524;-62
2021/06/16 08:01:48;;;;;;;14.20;7.13;;;;;;;19.96;60.17;99755.28;5014653;28;20045;-64
2021/06/16 08:04:16;;;;;;;13.63;6.88;;;;;;;19.97;60.22;99749.13;4999256;28;20050;-62
2021/06/16 08:06:44;;;;;;;13.38;7.00;;;;;;;19.97;60.15;99755.28;4998641;28;20128;-63
2021/06/16 08:09:15;;;;;;;14.40;7.25;;;;;;;19.99;60.26;99755.22;5015280;28;20143;-63
2021/06/16 08:11:41;;;;;;;9.05;7.32;;;;;;;20.00;60.20;99749.06;5015766;28;20405;-63
2021/06/16 08:14:09;;;;;;;12.68;7.57;;;;;;;20.02;60.19;99750.72;5015678;28;20095;-62
2021/06/16 08:16:35;;;;;;;13.43;7.30;;;;;;;20.03;60.18;99744.56;5014951;28;20065;-61
2021/06/16 08:19:06;;;;;;;15.50;8.13;;;;;;;20.05;60.30;99741.91;4998380;28;20112;-63
2021/06/16 08:21:37;;;;;;;21.17;7.53;;;;;;;20.08;60.20;99749.72;4998723;28;20034;-62
2021/06/16 08:24:06;;;;;;;13.57;7.90;;;;;;;20.08;60.28;99739.19;5014575;28;20065;-63
2021/06/16 08:26:35;;;;;;;10.13;7.07;;;;;;;20.11;60.22;99743.50;5014748;28;20046;-64
2021/06/16 08:29:03;;;;;;;15.18;8.20;;;;;;;20.11;60.37;99744.34;4998293;28;20553;-63
2021/06/16 08:31:32;;;;;;;13.90;7.63;;;;;;;20.13;60.36;99737.28;4998272;28;20045;-63
2021/06/16 08:33:57;;;;;;;11.88;8.13;;;;;;;20.15;60.08;99734.63;5014268;28;20034;-63
2021/06/16 08:36:26;;;;;;;13.05;7.30;;;;;;;20.16;60.53;99736.34;5015898;28;20481;-62
2021/06/16 08:38:51;;;;;;;12.43;7.57;;;;;;;20.18;60.49;99726.63;4998006;28;20065;-63
2021/06/16 08:41:21;;;;;;;16.35;8.00;;;;;;;20.20;60.30;99730.94;5014381;28;20098;-63
2021/06/16 08:43:47;;;;;;;17.30;8.50;;;;;;;20.22;60.53;99741.41;4998014;28;20033;-63
2021/06/16 08:46:15;;;;;;;12.07;8.52;;;;;;;20.24;60.46;99724.66;5014330;28;20568;-63
2021/06/16 08:48:46;;;;;;;15.07;7.65;;;;;;;20.26;60.31;99731.66;5015522;28;20122;-63
2021/06/16 08:51:20;;;;;;;16.25;8.93;;;;;;;20.27;60.80;99722.88;5015224;28;20065;-64
2021/06/16 08:53:48;;;;;;;12.10;7.57;;;;;;;20.30;60.41;99725.41;4997841;28;20038;-61
2021/06/16 08:56:16;;;;;;;12.43;8.38;;;;;;;20.31;60.74;99721.88;5015651;28;20121;-62
2021/06/16 08:58:45;;;;;;;12.30;7.97;;;;;;;20.35;60.58;99726.16;5015301;28;20033;-63
2021/06/16 09:01:16;;;;;;;13.48;8.48;;;;;;;20.36;60.72;99722.63;5014263;28;20049;-64
2021/06/16 09:03:44;;;;;;;13.27;9.45;;;;;;;20.38;60.82;99726.91;4997487;28;20133;-64
2021/06/16 09:06:15;;;;;;;11.30;8.63;;;;;;;20.41;60.74;99722.47;5014041;28;20030;-63
2021/06/16 09:09:05;;;;;;;15.98;8.60;;;;;;;20.43;60.47;99728.56;5014209;28;20129;-62
2021/06/16 09:11:40;;;;;;;12.15;9.20;;;;;;;20.43;60.52;99721.50;4989938;28;20057;-62
2021/06/16 09:14:18;;;;;;;16.30;9.48;;;;;;;20.45;60.58;99716.22;5015101;28;20077;-64
2021/06/16 09:16:47;;;;;;;10.43;8.02;;;;;;;20.47;60.74;99717.88;4997136;28;20493;-63
2021/06/16 09:19:32;;;;;;;18.08;9.95;;;;;;;20.51;60.75;99723.91;5013822;28;20088;-63
2021/06/16 09:22:07;;;;;;;13.25;8.50;;;;;;;20.53;60.87;99719.47;5013618;28;20102;-64
2021/06/16 09:24:47;;;;;;;12.02;9.00;;;;;;;20.57;60.76;99722.84;5013753;28;20065;-62
2021/06/16 09:27:40;;;;;;;13.95;9.55;;;;;;;20.58;60.94;99720.19;5013447;28;20037;-64
2021/06/16 09:30:26;;;;;;;15.18;8.20;;;;;;;20.60;60.86;99714.88;5014747;28;20038;-62
2021/06/16 09:32:56;;;;;;;12.00;8.43;;;;;;;20.62;60.97;99708.66;4989633;28;20046;-63
2021/06/16 09:35:37;;;;;;;16.65;9.65;;;;;;;20.65;61.11;99705.06;4997120;28;20072;-63
2021/06/16 09:38:07;;;;;;;11.65;9.63;;;;;;;20.66;61.40;99702.38;4997036;28;20092;-65
2021/06/16 09:40:35;;;;;;;13.98;9.50;;;;;;;20.70;61.50;99700.53;4997049;28;20556;-64
2021/06/16 09:43:13;;;;;;;12.70;9.23;;;;;;;20.73;61.24;99699.56;5013280;28;20038;-63
2021/06/16 09:45:40;;;;;;;15.68;10.73;;;;;;;20.73;61.18;99705.69;5014145;28;20046;-63
2021/06/16 09:48:22;;;;;;;14.43;9.65;;;;;;;20.76;61.30;99696.88;4996443;28;20041;-63
2021/06/16 09:50:53;;;;;;;14.85;10.60;;;;;;;20.75;61.42;99693.34;5013098;28;20033;-63
2021/06/16 09:53:19;;;;;;;14.35;9.90;;;;;;;20.78;61.33;99692.41;5013471;28;20029;-63
2021/06/16 09:55:47;;;;;;;17.90;10.05;;;;;;;20.80;61.42;99685.31;4996838;28;20124;-63
2021/06/16 09:58:21;;;;;;;18.23;10.25;;;;;;;20.86;61.59;99697.44;5012893;28;20104;-63
2021/06/16 10:00:54;;;;;;;13.07;9.80;;;;;;;20.89;61.49;99686.78;4996441;28;20056;-62
2021/06/16 10:03:22;;;;;;;15.40;10.52;;;;;;;20.92;61.77;99692.84;5014183;28;20064;-64
2021/06/16 10:06:20;;;;;;;10.50;9.40;;;;;;;20.95;61.57;99689.22;4997135;28;20069;-62
2021/06/16 10:08:52;;;;;;;18.35;10.63;;;;;;;20.96;61.88;99686.53;4990902;28;20073;-64
2021/06/16 10:11:20;;;;;;;13.73;10.70;;;;;;;20.97;61.76;99693.53;5013637;28;20088;-62
2021/06/16 10:13:49;;;;;;;15.20;10.20;;;;;;;21.01;61.83;99693.44;5012957;28;20045;-62
2021/06/16 10:16:18;;;;;;;12.80;10.77;;;;;;;21.01;61.73;99688.16;4996472;28;20026;-63
2021/06/16 10:18:44;;;;;;;16.98;10.95;;;;;;;21.03;61.88;99695.09;4996618;28;20490;-62
2021/06/16 10:21:15;;;;;;;16.70;11.25;;;;;;;21.06;62.06;99691.53;5014077;28;20070;-65
2021/06/16 10:23:40;;;;;;;14.80;10.55;;;;;;;21.07;61.91;99695.88;4996152;28;20129;-64
2021/06/16 10:26:33;;;;;;;15.18;11.00;;;;;;;21.12;61.95;99696.56;5012531;28;20117;-62
2021/06/16 10:29:04;;;;;;;13.32;9.93;;;;;;;21.14;61.90;99697.38;5011801;28;20045;-63
2021/06/16 10:31:39;;;;;;;15.48;9.52;;;;;;;21.14;62.12;99693.00;4996349;28;20037;-64
2021/06/16 10:34:05;;;;;;;12.95;9.35;;;;;;;21.19;62.01;99691.94;5014092;28;20049;-62
2021/06/16 10:36:32;;;;;;;10.88;8.38;;;;;;;21.20;61.72;99686.66;4996322;28;20041;-62
2021/06/16 10:38:57;;;;;;;12.32;8.52;;;;;;;21.22;62.08;99687.47;5013155;28;20080;-64
2021/06/16 10:41:47;;;;;;;21.08;9.38;;;;;;;21.25;61.89;99683.84;5012430;28;20112;-62
2021/06/16 10:44:16;;;;;;;12.27;8.75;;;;;;;21.26;61.88;99689.06;4990468;28;20531;-64
2021/06/16 10:46:52;;;;;;;11.48;8.48;;;;;;;21.28;61.89;99687.22;5013409;28;20034;-62
2021/06/16 10:49:36;;;;;;;14.30;7.57;;;;;;;21.31;62.03;99688.94;4996534;28;20421;-63
2021/06/16 10:52:03;;;;;;;12.18;8.88;;;;;;;21.32;62.01;99693.28;5013669;28;20048;-62
2021/06/16 10:54:33;;;;;;;11.77;8.45;;;;;;;21.36;62.02;99684.34;4995854;28;20044;-63
2021/06/16 10:57:11;;;;;;;11.82;8.60;;;;;;;21.39;62.10;99680.75;5012190;28;20072;-65
2021/06/16 10:59:46;;;;;;;9.57;7.40;;;;;;;21.41;62.15;99681.56;5013816;28;20470;-64
2021/06/16 11:02:17;;;;;;;10.85;8.90;;;;;;;21.42;62.21;99676.22;4995737;28;20086;-62
2021/06/16 11:04:45;;;;;;;11.30;8.02;;;;;;;21.44;62.16;99671.78;5012419;28;20026;-63
2021/06/16 11:07:26;;;;;;;15.73;8.50;;;;;;;21.47;62.07;99670.78;4995753;28;20038;-64
2021/06/16 11:10:14;;;;;;;9.88;7.13;;;;;;;21.48;62.02;99669.88;5013459;28;20505;-64
2021/06/16 11:12:49;;;;;;;10.18;7.63;;;;;;;21.50;62.12;99673.31;5013321;28;20031;-64
2021/06/16 11:15:24;;;;;;;11.52;7.60;;;;;;;21.51;62.09;99669.78;4995921;28;20100;-63
2021/06/16 11:17:53;;;;;;;14.55;8.68;;;;;;;21.53;62.15;99664.44;5013180;28;20041;-64
2021/06/16 11:20:25;;;;;;;10.50;8.38;;;;;;;21.54;62.18;99671.44;4995468;28;20133;-62
2021/06/16 11:22:53;;;;;;;11.63;7.93;;;;;;;21.57;62.23;99668.69;5014371;28;20030;-63
2021/06/16 11:25:20;;;;;;;9.10;8.02;;;;;;;21.57;62.23;99661.63;4999328;28;20379;-63
2021/06/16 11:28:03;;;;;;;12.68;8.52;;;;;;;21.60;62.28;99658.06;5016567;28;20034;-62
2021/06/16 11:30:54;;;;;;;15.40;7.57;;;;;;;21.63;62.19;99660.59;5000026;28;20049;-64
2021/06/16 11:33:22;;;;;;;7.80;7.03;;;;;;;21.64;62.14;99661.47;5015759;28;20112;-63
2021/06/16 11:36:00;;;;;;;9.85;7.07;;;;;;;21.65;62.08;99657.91;4999366;28;20133;-64
2021/06/16 11:38:29;;;;;;;10.25;7.25;;;;;;;21.65;62.30;99650.84;4999219;28;20502;-63
2021/06/16 11:41:03;;;;;;;12.98;6.80;;;;;;;21.67;62.28;99651.66;4999241;28;20026;-63
2021/06/16 11:43:40;;;;;;;11.48;7.32;;;;;;;21.69;62.27;99651.63;5017242;28;20470;-62